Time;durP1;ratioP1;P1;durP2;ratioP2;P2;SDS_P1;SDS_P2;PMS_P1;PMS_P2;Temp;Humidity;BMP_temperature;BMP_pressure;BME280_temperature;BME280_humidity;BME280_pressure;Samples;Min_cycle;Max_cycle;Signal;HPM_P1;HPM_P2
2021/12/07 00:02:01;;;;;;;6.47;4.40;;;;;;;;;;5033386;28;20422;-66
2021/12/07 00:04:27;;;;;;;5.87;4.30;;;;;;;;;;5033341;28;20411;-66
2021/12/07 00:06:54;;;;;;;4.50;3.77;;;;;;;;;;5036625;28;20406;-66
2021/12/07 00:09:21;;;;;;;4.63;3.80;;;;;;;;;;5053175;28;20493;-68
2021/12/07 00:11:48;;;;;;;3.90;3.43;;;;;;;;;;5053180;28;20462;-67
2021/12/07 00:14:22;;;;;;;6.30;4.40;;;;;;;;;;5053101;28;20425;-68
2021/12/07 00:16:48;;;;;;;4.80;3.40;;;;;;;;;;5042097;28;20478;-66
2021/12/07 00:19:14;;;;;;;6.00;4.10;;;;;;;;;;5033128;28;20503;-66
2021/12/07 00:21:41;;;;;;;6.43;3.97;;;;;;;;;;5033160;28;20411;-66
2021/12/07 00:24:08;;;;;;;5.50;3.73;;;;;;;;;;5033050;28;20435;-66
2021/12/07 00:26:34;;;;;;;7.63;4.70;;;;;;;;;;5048658;28;20484;-66
2021/12/07 00:29:02;;;;;;;5.70;4.00;;;;;;;;;;5053022;28;20812;-66
2021/12/07 00:31:36;;;;;;;4.60;3.90;;;;;;;;;;5053058;28;20410;-66
2021/12/07 00:34:36;;;;;;;4.93;4.30;;;;;;;;;;5052702;28;20413;-66
2021/12/07 00:36:51;;;;;;;5.37;3.87;;;;;;;;;;5036673;28;20542;-66
2021/12/07 00:39:19;;;;;;;3.57;3.17;;;;;;;;;;5033137;28;20404;-66
2021/12/07 00:41:45;;;;;;;5.37;3.50;;;;;;;;;;5033121;28;20489;-68
2021/12/07 00:44:11;;;;;;;4.57;3.60;;;;;;;;;;5032719;28;20422;-67
2021/12/07 00:46:37;;;;;;;4.47;3.13;;;;;;;;;;5032939;28;20921;-67
2021/12/07 00:49:04;;;;;;;3.50;2.80;;;;;;;;;;5032925;28;20436;-67
2021/12/07 00:51:31;;;;;;;5.33;3.40;;;;;;;;;;5035110;28;20582;-66
2021/12/07 00:53:57;;;;;;;3.90;3.27;;;;;;;;;;5036741;28;20454;-66
2021/12/07 00:56:23;;;;;;;4.87;3.70;;;;;;;;;;5036539;28;20475;-66
2021/12/07 00:58:51;;;;;;;4.40;3.30;;;;;;;;;;5036768;28;20421;-66
2021/12/07 01:01:18;;;;;;;4.93;3.83;;;;;;;;;;5036614;28;20420;-65
2021/12/07 01:03:44;;;;;;;4.93;3.73;;;;;;;;;;5036425;28;20960;-66
2021/12/07 01:06:29;;;;;;;5.70;3.60;;;;;;;;;;5036624;28;20442;-66
2021/12/07 01:25:52;;;;;;;5.80;4.20;;;;;;;;;;5036505;28;20453;-66
2021/12/07 01:36:04;;;;;;;3.70;3.10;;;;;;;;;;5043544;28;20420;-67
2021/12/07 01:41:19;;;;;;;7.50;3.83;;;;;;;;;;5035982;28;20407;-67
2021/12/07 01:59:49;;;;;;;2.87;2.67;;;;;;;;;;5035668;28;20719;-66
2021/12/07 02:02:16;;;;;;;4.00;3.03;;;;;;;;;;5034452;28;20459;-66
2021/12/07 02:04:43;;;;;;;3.43;3.07;;;;;;;;;;5035397;28;20412;-66
2021/12/07 02:07:09;;;;;;;4.23;2.90;;;;;;;;;;5035471;28;20977;-66
2021/12/07 02:09:38;;;;;;;3.00;2.63;;;;;;;;;;5035354;28;20418;-66
2021/12/07 02:12:06;;;;;;;2.80;2.60;;;;;;;;;;5035438;28;20425;-66
2021/12/07 02:14:32;;;;;;;3.30;3.00;;;;;;;;;;5035466;28;20768;-65
2021/12/07 02:17:00;;;;;;;5.53;3.50;;;;;;;;;;5035131;28;20467;-67
2021/12/07 02:19:26;;;;;;;3.90;3.10;;;;;;;;;;5035078;28;20952;-67
2021/12/07 02:21:54;;;;;;;4.90;3.47;;;;;;;;;;5035184;28;20816;-66
2021/12/07 02:24:20;;;;;;;4.80;3.20;;;;;;;;;;5035162;28;20883;-67
2021/12/07 02:26:47;;;;;;;3.47;2.90;;;;;;;;;;5043479;28;20407;-67
2021/12/07 02:29:14;;;;;;;4.70;3.23;;;;;;;;;;5054905;28;20414;-67
2021/12/07 02:31:40;;;;;;;3.50;3.00;;;;;;;;;;5054504;28;20446;-67
2021/12/07 02:34:07;;;;;;;5.10;3.53;;;;;;;;;;5053659;28;20412;-67
2021/12/07 02:36:33;;;;;;;3.70;3.30;;;;;;;;;;5053924;28;20575;-67
2021/12/07 02:39:00;;;;;;;5.00;3.63;;;;;;;;;;5054781;28;20498;-67
2021/12/07 02:41:26;;;;;;;4.60;3.20;;;;;;;;;;5051336;28;20410;-67
2021/12/07 02:43:52;;;;;;;5.40;3.80;;;;;;;;;;5054687;28;20407;-67
2021/12/07 02:46:18;;;;;;;3.63;3.00;;;;;;;;;;5038646;28;20422;-65
2021/12/07 02:48:44;;;;;;;3.40;2.60;;;;;;;;;;5033427;28;20423;-66
2021/12/07 02:51:10;;;;;;;3.20;2.90;;;;;;;;;;5034638;28;20435;-65
2021/12/07 02:53:36;;;;;;;4.40;3.13;;;;;;;;;;5034575;28;20945;-66
2021/12/07 02:56:03;;;;;;;2.50;2.20;;;;;;;;;;5034058;28;20946;-66
2021/12/07 02:58:29;;;;;;;3.43;2.47;;;;;;;;;;5034410;28;20412;-66
2021/12/07 03:01:03;;;;;;;2.70;2.30;;;;;;;;;;5034353;28;20418;-65
2021/12/07 03:03:34;;;;;;;3.70;2.23;;;;;;;;;;5034999;28;20955;-65
2021/12/07 03:09:08;;;;;;;2.50;2.30;;;;;;;;;;5054250;28;20417;-66
2021/12/07 03:27:35;;;;;;;2.00;1.80;;;;;;;;;;5054087;28;20402;-66
2021/12/07 03:30:03;;;;;;;3.27;1.93;;;;;;;;;;5053745;28;20409;-66
2021/12/07 03:32:29;;;;;;;2.73;1.80;;;;;;;;;;5037567;28;20756;-67
2021/12/07 03:34:55;;;;;;;2.13;1.93;;;;;;;;;;5033926;28;20871;-67
2021/12/07 03:37:21;;;;;;;2.10;1.80;;;;;;;;;;5033674;28;20469;-66
2021/12/07 03:39:47;;;;;;;2.10;1.90;;;;;;;;;;5033622;28;20419;-66
2021/12/07 03:42:14;;;;;;;4.17;1.60;;;;;;;;;;5033621;28;20953;-66
2021/12/07 03:44:40;;;;;;;2.33;1.77;;;;;;;;;;5033647;28;20441;-67
2021/12/07 03:47:06;;;;;;;2.23;1.73;;;;;;;;;;5033689;28;20867;-66
2021/12/07 03:49:32;;;;;;;1.80;1.70;;;;;;;;;;5042697;28;20431;-66
2021/12/07 03:51:58;;;;;;;2.23;2.00;;;;;;;;;;5053378;28;20405;-66
2021/12/07 03:54:24;;;;;;;2.20;2.00;;;;;;;;;;5053430;28;20414;-67
2021/12/07 03:56:50;;;;;;;1.37;1.27;;;;;;;;;;5053105;28;21046;-67
2021/12/07 03:59:16;;;;;;;1.73;1.63;;;;;;;;;;5052446;28;20525;-68
2021/12/07 04:01:42;;;;;;;2.00;1.73;;;;;;;;;;5053296;28;20497;-67
2021/12/07 04:04:08;;;;;;;2.00;1.80;;;;;;;;;;5053355;28;20510;-67
2021/12/07 04:06:34;;;;;;;2.40;1.70;;;;;;;;;;5053221;28;20402;-68
2021/12/07 04:09:00;;;;;;;1.93;1.60;;;;;;;;;;5051074;28;20426;-67
2021/12/07 04:11:26;;;;;;;3.00;1.20;;;;;;;;;;5053259;28;20437;-67
2021/12/07 04:13:52;;;;;;;2.20;1.77;;;;;;;;;;5053250;28;20404;-68
2021/12/07 04:16:19;;;;;;;4.33;1.67;;;;;;;;;;5049679;28;20463;-67
2021/12/07 04:18:45;;;;;;;2.03;1.53;;;;;;;;;;5031934;28;20420;-68
2021/12/07 04:21:11;;;;;;;1.80;1.70;;;;;;;;;;5032781;28;20420;-66
2021/12/07 04:23:37;;;;;;;1.50;1.40;;;;;;;;;;5038945;28;20449;-67
2021/12/07 04:26:05;;;;;;;1.60;1.40;;;;;;;;;;5056791;28;20426;-67
2021/12/07 04:28:31;;;;;;;2.83;1.60;;;;;;;;;;5059658;28;20493;-67
2021/12/07 04:30:57;;;;;;;2.67;2.10;;;;;;;;;;5059684;28;20495;-67
2021/12/07 04:33:23;;;;;;;1.73;1.60;;;;;;;;;;5059686;28;20425;-67
2021/12/07 04:35:50;;;;;;;1.50;1.27;;;;;;;;;;5055381;28;20488;-67
2021/12/07 04:38:17;;;;;;;2.33;1.57;;;;;;;;;;5059540;28;20414;-68
2021/12/07 04:40:43;;;;;;;1.83;1.50;;;;;;;;;;5059537;28;20915;-66
2021/12/07 04:43:10;;;;;;;1.90;1.37;;;;;;;;;;5058691;28;20445;-66
2021/12/07 04:58:52;;;;;;;1.90;1.60;;;;;;;;;;5039506;28;20438;-66
2021/12/07 05:01:18;;;;;;;1.37;1.27;;;;;;;;;;5050174;28;20456;-66
2021/12/07 05:03:46;;;;;;;1.50;1.20;;;;;;;;;;5059519;28;20405;-66
2021/12/07 05:06:13;;;;;;;1.33;1.10;;;;;;;;;;5059524;28;20411;-67
2021/12/07 05:39:54;;;;;;;4.67;1.47;;;;;;;;;;5036262;28;20933;-66
2021/12/07 05:42:23;;;;;;;1.33;1.10;;;;;;;;;;5035812;28;20414;-66
2021/12/07 05:44:50;;;;;;;9.57;1.83;;;;;;;;;;5047303;28;20764;-67
2021/12/07 05:47:16;;;;;;;5.33;1.47;;;;;;;;;;5055678;28;20810;-66
2021/12/07 05:49:42;;;;;;;5.63;1.57;;;;;;;;;;5055844;28;20867;-66
2021/12/07 05:52:08;;;;;;;1.40;1.30;;;;;;;;;;5053585;28;20461;-66
2021/12/07 05:54:34;;;;;;;3.60;1.60;;;;;;;;;;5035675;28;20396;-66
2021/12/07 05:57:00;;;;;;;3.50;1.70;;;;;;;;;;5035365;28;20617;-66
2021/12/07 05:59:26;;;;;;;2.50;1.37;;;;;;;;;;5035685;28;20439;-66
2021/12/07 06:01:53;;;;;;;2.80;1.43;;;;;;;;;;5053298;28;21054;-66
2021/12/07 06:04:19;;;;;;;3.40;1.77;;;;;;;;;;5055249;28;20419;-66
2021/12/07 06:06:45;;;;;;;3.33;1.40;;;;;;;;;;5054140;28;20417;-66
2021/12/07 06:09:11;;;;;;;3.50;1.90;;;;;;;;;;5054506;28;20901;-66
2021/12/07 06:11:37;;;;;;;2.63;1.50;;;;;;;;;;5055299;28;20406;-66
2021/12/07 06:14:03;;;;;;;3.47;1.93;;;;;;;;;;5055209;28;20402;-66
2021/12/07 06:16:31;;;;;;;3.47;1.37;;;;;;;;;;5055369;28;20480;-66
2021/12/07 06:18:58;;;;;;;4.00;1.63;;;;;;;;;;5037582;28;20767;-66
2021/12/07 06:21:25;;;;;;;2.83;1.73;;;;;;;;;;5035201;28;20404;-66
2021/12/07 06:23:52;;;;;;;3.33;2.10;;;;;;;;;;5034952;28;20989;-66
2021/12/07 06:26:18;;;;;;;7.93;1.40;;;;;;;;;;5045598;28;20422;-68
2021/12/07 06:28:44;;;;;;;1.80;1.60;;;;;;;;;;5054866;28;20414;-67
2021/12/07 06:31:10;;;;;;;3.60;1.60;;;;;;;;;;5054105;28;20414;-67
2021/12/07 06:33:36;;;;;;;4.60;1.70;;;;;;;;;;5051783;28;20879;-66
2021/12/07 06:36:03;;;;;;;1.90;1.70;;;;;;;;;;5042697;28;21038;-66
2021/12/07 06:38:30;;;;;;;1.80;1.43;;;;;;;;;;5034867;28;20443;-67
2021/12/07 06:40:56;;;;;;;5.53;1.60;;;;;;;;;;5034644;28;20395;-65
2021/12/07 06:43:23;;;;;;;4.60;1.17;;;;;;;;;;5034687;28;20497;-67
2021/12/07 06:45:49;;;;;;;3.20;1.20;;;;;;;;;;5053989;28;20407;-68
2021/12/07 06:48:15;;;;;;;3.27;1.30;;;;;;;;;;5053906;28;20407;-66
2021/12/07 06:50:41;;;;;;;2.03;1.70;;;;;;;;;;5054475;28;20499;-66
2021/12/07 06:53:08;;;;;;;5.00;1.77;;;;;;;;;;5053564;28;20445;-66
2021/12/07 06:55:34;;;;;;;1.80;1.60;;;;;;;;;;5054328;28;20412;-68
2021/12/07 06:58:00;;;;;;;5.00;1.60;;;;;;;;;;5054329;28;20606;-68
2021/12/07 07:00:26;;;;;;;6.00;2.07;;;;;;;;;;5054246;28;20879;-66
2021/12/07 07:02:52;;;;;;;3.70;1.70;;;;;;;;;;5037505;28;20438;-66
2021/12/07 07:05:18;;;;;;;2.33;1.70;;;;;;;;;;5034369;28;20411;-66
2021/12/07 07:07:45;;;;;;;3.07;1.90;;;;;;;;;;5034153;28;21181;-66
2021/12/07 07:10:12;;;;;;;3.20;1.67;;;;;;;;;;5042280;28;20439;-66
2021/12/07 07:12:39;;;;;;;2.70;1.47;;;;;;;;;;5053876;28;20417;-66
2021/12/07 07:15:06;;;;;;;7.50;2.00;;;;;;;;;;5054010;28;20435;-66
2021/12/07 07:17:32;;;;;;;1.80;1.47;;;;;;;;;;5052658;28;20496;-66
2021/12/07 07:19:58;;;;;;;5.07;1.97;;;;;;;;;;5036254;28;20809;-66
2021/12/07 07:22:24;;;;;;;4.27;1.90;;;;;;;;;;5033831;28;20818;-66
2021/12/07 07:24:50;;;;;;;5.07;2.07;;;;;;;;;;5033996;28;20880;-67
2021/12/07 07:27:16;;;;;;;6.43;2.27;;;;;;;;;;5046027;28;20431;-66
2021/12/07 07:29:43;;;;;;;4.03;1.93;;;;;;;;;;5053730;28;20912;-66
2021/12/07 07:32:09;;;;;;;7.70;2.00;;;;;;;;;;5053725;28;20731;-67
2021/12/07 07:34:35;;;;;;;3.20;1.80;;;;;;;;;;5052484;28;20413;-67
2021/12/07 07:37:01;;;;;;;2.90;2.30;;;;;;;;;;5041165;28;21025;-67
2021/12/07 07:39:27;;;;;;;9.77;1.90;;;;;;;;;;5033699;28;20447;-66
2021/12/07 07:41:53;;;;;;;1.97;1.80;;;;;;;;;;5033581;28;20905;-67
2021/12/07 07:44:19;;;;;;;2.20;1.60;;;;;;;;;;5043138;28;20417;-67
2021/12/07 07:46:46;;;;;;;2.63;1.57;;;;;;;;;;5053386;28;20770;-67
2021/12/07 07:49:12;;;;;;;6.90;1.80;;;;;;;;;;5052057;28;20774;-67
2021/12/07 07:51:38;;;;;;;4.73;1.70;;;;;;;;;;5053259;28;20921;-67
2021/12/07 07:54:06;;;;;;;4.57;1.80;;;;;;;;;;5052561;28;20801;-67
2021/12/07 07:56:32;;;;;;;7.77;1.73;;;;;;;;;;5053016;28;20499;-67
2021/12/07 07:58:58;;;;;;;1.70;1.20;;;;;;;;;;5052700;28;20423;-67
2021/12/07 08:01:24;;;;;;;2.63;1.90;;;;;;;;;;5052786;28;20763;-67
2021/12/07 08:03:51;;;;;;;2.80;1.60;;;;;;;;;;5035404;28;20901;-68
2021/12/07 08:06:18;;;;;;;6.70;1.40;;;;;;;;;;5033319;28;20582;-67
2021/12/07 08:08:44;;;;;;;5.53;2.10;;;;;;;;;;5033124;28;20465;-68
2021/12/07 08:11:10;;;;;;;2.83;1.53;;;;;;;;;;5037859;28;20514;-68
2021/12/07 08:13:36;;;;;;;3.53;1.60;;;;;;;;;;5053100;28;20402;-68
2021/12/07 08:16:02;;;;;;;10.67;2.03;;;;;;;;;;5052928;28;20937;-67
2021/12/07 08:18:28;;;;;;;1.40;1.30;;;;;;;;;;5052915;28;20451;-67
2021/12/07 08:20:55;;;;;;;3.27;1.70;;;;;;;;;;5052158;28;20897;-70
2021/12/07 08:23:21;;;;;;;5.60;1.60;;;;;;;;;;5052798;28;20511;-71
2021/12/07 08:25:48;;;;;;;1.97;1.30;;;;;;;;;;5052735;28;20853;-68
2021/12/07 08:28:17;;;;;;;4.77;1.43;;;;;;;;;;5051798;28;20426;-68
2021/12/07 08:30:43;;;;;;;9.80;1.63;;;;;;;;;;5051800;28;20425;-69
2021/12/07 08:33:10;;;;;;;5.33;1.60;;;;;;;;;;5048157;28;20782;-68
2021/12/07 08:35:36;;;;;;;7.40;1.87;;;;;;;;;;5052905;28;20403;-68
2021/12/07 08:38:02;;;;;;;3.23;1.43;;;;;;;;;;5032591;28;20988;-68
2021/12/07 08:40:30;;;;;;;5.70;1.30;;;;;;;;;;5032927;28;20419;-68
2021/12/07 08:42:57;;;;;;;8.23;1.60;;;;;;;;;;5032980;28;20414;-68
2021/12/07 08:45:23;;;;;;;4.60;1.80;;;;;;;;;;5034861;28;21969;-68
2021/12/07 08:47:50;;;;;;;6.30;1.70;;;;;;;;;;5052909;28;20405;-68
2021/12/07 08:50:18;;;;;;;4.43;1.73;;;;;;;;;;5052814;28;20400;-68
2021/12/07 08:52:45;;;;;;;3.77;1.67;;;;;;;;;;5052676;28;20524;-68
2021/12/07 09:00:27;;;;;;;1.50;1.37;;;;;;;;;;5052758;28;20401;-68
2021/12/07 09:02:53;;;;;;;5.80;1.80;;;;;;;;;;5036308;28;20938;-70
2021/12/07 09:05:19;;;;;;;2.17;1.60;;;;;;;;;;5032767;28;20433;-70
2021/12/07 09:07:46;;;;;;;3.30;1.60;;;;;;;;;;5032555;28;20830;-69
2021/12/07 09:10:13;;;;;;;1.50;1.40;;;;;;;;;;5045316;28;20512;-68
2021/12/07 09:12:39;;;;;;;3.03;1.50;;;;;;;;;;5056288;28;20477;-69
2021/12/07 09:15:06;;;;;;;4.67;1.60;;;;;;;;;;5056386;28;20457;-70
2021/12/07 09:17:32;;;;;;;2.40;1.60;;;;;;;;;;5054255;28;20494;-70
2021/12/07 09:19:58;;;;;;;8.17;1.70;;;;;;;;;;5056205;28;20445;-69
2021/12/07 09:22:25;;;;;;;3.23;1.30;;;;;;;;;;5056094;28;20483;-70
2021/12/07 09:24:51;;;;;;;2.40;1.70;;;;;;;;;;5056118;28;20955;-66
2021/12/07 09:27:17;;;;;;;5.00;1.63;;;;;;;;;;5049041;28;20769;-67
2021/12/07 09:29:44;;;;;;;2.10;1.47;;;;;;;;;;5036150;28;20401;-66
2021/12/07 09:32:10;;;;;;;3.33;1.67;;;;;;;;;;5035984;28;20425;-67
2021/12/07 09:34:36;;;;;;;3.13;1.20;;;;;;;;;;5036906;28;20398;-69
2021/12/07 09:37:02;;;;;;;3.80;1.80;;;;;;;;;;5055699;28;20933;-68
2021/12/07 09:39:28;;;;;;;2.33;1.50;;;;;;;;;;5055764;28;20405;-69
2021/12/07 09:41:55;;;;;;;3.57;1.87;;;;;;;;;;5055834;28;20407;-69
2021/12/07 09:44:22;;;;;;;4.87;1.83;;;;;;;;;;5055051;28;20433;-68
2021/12/07 09:46:48;;;;;;;1.90;1.30;;;;;;;;;;5055651;28;20771;-70
2021/12/07 09:49:14;;;;;;;5.50;1.77;;;;;;;;;;5055569;28;20765;-69
2021/12/07 09:51:40;;;;;;;3.67;1.30;;;;;;;;;;5050447;28;20514;-69
2021/12/07 09:54:08;;;;;;;5.40;2.07;;;;;;;;;;5035668;28;20826;-67
2021/12/07 09:56:34;;;;;;;2.13;1.20;;;;;;;;;;5035380;28;20833;-68
2021/12/07 09:59:01;;;;;;;5.10;1.53;;;;;;;;;;5035690;28;20937;-70
2021/12/07 10:01:28;;;;;;;2.70;1.50;;;;;;;;;;5035301;28;20755;-70
2021/12/07 10:03:54;;;;;;;6.03;1.50;;;;;;;;;;5035556;28;20412;-70
2021/12/07 10:06:21;;;;;;;5.93;1.20;;;;;;;;;;5035301;28;20416;-69
2021/12/07 10:08:47;;;;;;;4.87;1.40;;;;;;;;;;5035282;28;20407;-70
2021/12/07 10:11:14;;;;;;;4.77;1.77;;;;;;;;;;5053585;28;20454;-69
2021/12/07 10:13:41;;;;;;;2.10;1.27;;;;;;;;;;5055339;28;20395;-69
2021/12/07 10:16:08;;;;;;;5.70;1.57;;;;;;;;;;5055314;28;20409;-68
2021/12/07 10:18:39;;;;;;;5.27;2.17;;;;;;;;;;5055235;28;20411;-68
2021/12/07 10:21:05;;;;;;;8.53;1.97;;;;;;;;;;5054259;28;20415;-69
2021/12/07 10:23:37;;;;;;;2.40;1.63;;;;;;;;;;5054089;28;20431;-68
2021/12/07 10:26:03;;;;;;;1.40;1.27;;;;;;;;;;5054623;28;20407;-69
2021/12/07 10:28:29;;;;;;;6.53;1.70;;;;;;;;;;5051261;28;20462;-68
2021/12/07 10:31:18;;;;;;;4.63;2.03;;;;;;;;;;5034992;28;20445;-68
2021/12/07 10:33:46;;;;;;;5.63;1.73;;;;;;;;;;5033474;28;20511;-68
2021/12/07 10:36:19;;;;;;;5.50;1.50;;;;;;;;;;5033632;28;20407;-68
2021/12/07 10:39:08;;;;;;;8.43;2.80;;;;;;;;;;5041572;28;20431;-68
2021/12/07 10:41:42;;;;;;;7.67;2.30;;;;;;;;;;5054050;28;20421;-68
2021/12/07 10:44:10;;;;;;;3.80;2.03;;;;;;;;;;5051345;28;20407;-69
2021/12/07 10:46:38;;;;;;;3.20;1.53;;;;;;;;;;5052549;28;20470;-69
2021/12/07 10:49:08;;;;;;;2.93;1.40;;;;;;;;;;5053413;28;20423;-68
2021/12/07 10:51:34;;;;;;;3.83;1.20;;;;;;;;;;5054552;28;20457;-69
2021/12/07 10:54:01;;;;;;;7.80;1.80;;;;;;;;;;5053251;28;20406;-70
2021/12/07 10:56:34;;;;;;;3.10;1.67;;;;;;;;;;5051140;28;20469;-69
2021/12/07 10:59:04;;;;;;;4.10;1.30;;;;;;;;;;5034457;28;20453;-68
2021/12/07 11:01:31;;;;;;;2.93;1.03;;;;;;;;;;5034274;28;20394;-69
2021/12/07 11:04:17;;;;;;;2.30;1.13;;;;;;;;;;5034356;28;20836;-70
2021/12/07 11:07:01;;;;;;;1.93;1.10;;;;;;;;;;5034114;28;20569;-69
2021/12/07 11:09:27;;;;;;;2.07;1.00;;;;;;;;;;5034368;28;20411;-69
2021/12/07 11:12:10;;;;;;;2.63;1.40;;;;;;;;;;5034223;28;20419;-69
2021/12/07 11:14:52;;;;;;;5.70;1.37;;;;;;;;;;5034068;28;20395;-70
2021/12/07 11:17:23;;;;;;;2.50;1.13;;;;;;;;;;5050380;28;20478;-70
2021/12/07 11:19:49;;;;;;;2.80;1.20;;;;;;;;;;5053889;28;20412;-69
2021/12/07 11:22:16;;;;;;;4.43;1.40;;;;;;;;;;5053919;28;20457;-67
2021/12/07 11:24:44;;;;;;;3.13;1.00;;;;;;;;;;5052537;28;20471;-67
2021/12/07 11:30:01;;;;;;;3.50;1.17;;;;;;;;;;5034210;28;20907;-67
2021/12/07 11:32:27;;;;;;;2.50;1.30;;;;;;;;;;5033913;28;20419;-67
2021/12/07 11:34:54;;;;;;;1.67;1.20;;;;;;;;;;5032345;28;20427;-67
2021/12/07 11:37:22;;;;;;;3.30;1.20;;;;;;;;;;5033703;28;20517;-67
2021/12/07 11:39:53;;;;;;;5.27;1.40;;;;;;;;;;5033686;28;20890;-67
2021/12/07 11:42:31;;;;;;;2.13;0.93;;;;;;;;;;5032330;28;20411;-68
2021/12/07 11:44:57;;;;;;;4.10;1.17;;;;;;;;;;5033674;28;20419;-68
2021/12/07 11:47:24;;;;;;;3.60;1.40;;;;;;;;;;5033453;28;20400;-68
2021/12/07 11:49:51;;;;;;;2.93;1.23;;;;;;;;;;5033545;28;20412;-68
2021/12/07 11:52:17;;;;;;;4.13;1.30;;;;;;;;;;5047109;28;20948;-68
2021/12/07 11:54:43;;;;;;;4.70;1.63;;;;;;;;;;5053343;28;20498;-68
2021/12/07 11:57:11;;;;;;;2.30;1.27;;;;;;;;;;5053029;28;20531;-69
2021/12/07 11:59:37;;;;;;;4.03;1.73;;;;;;;;;;5042369;28;20449;-68
2021/12/07 12:02:03;;;;;;;6.83;1.60;;;;;;;;;;5033267;28;20404;-69
2021/12/07 12:04:29;;;;;;;3.93;1.20;;;;;;;;;;5033342;28;20403;-69
2021/12/07 12:06:56;;;;;;;2.70;1.63;;;;;;;;;;5039207;28;20475;-68
2021/12/07 12:09:23;;;;;;;3.50;1.40;;;;;;;;;;5053175;28;20403;-68
2021/12/07 12:12:08;;;;;;;3.03;1.30;;;;;;;;;;5053089;28;20452;-69
2021/12/07 12:14:34;;;;;;;2.07;1.30;;;;;;;;;;5049933;28;20465;-69
2021/12/07 12:17:07;;;;;;;6.77;1.50;;;;;;;;;;5033325;28;20571;-68
2021/12/07 12:19:40;;;;;;;3.57;1.40;;;;;;;;;;5052382;28;20464;-69
2021/12/07 12:22:10;;;;;;;4.10;1.67;;;;;;;;;;5052821;28;20784;-67
2021/12/07 12:24:37;;;;;;;2.73;1.50;;;;;;;;;;5052079;28;20524;-68
2021/12/07 12:27:08;;;;;;;1.87;1.43;;;;;;;;;;5052782;28;20413;-68
2021/12/07 12:29:35;;;;;;;3.90;1.20;;;;;;;;;;5052927;28;20539;-68
2021/12/07 12:32:01;;;;;;;6.13;2.00;;;;;;;;;;5053008;28;20416;-68
2021/12/07 12:34:29;;;;;;;6.70;1.70;;;;;;;;;;5044400;28;20418;-69
2021/12/07 12:36:57;;;;;;;3.10;1.33;;;;;;;;;;5032935;28;20464;-69
2021/12/07 12:39:40;;;;;;;6.43;2.10;;;;;;;;;;5032936;28;20776;-68
2021/12/07 12:42:06;;;;;;;2.90;1.60;;;;;;;;;;5032801;28;20475;-69
2021/12/07 12:44:36;;;;;;;6.20;1.60;;;;;;;;;;5032873;28;20422;-68
2021/12/07 12:47:02;;;;;;;3.63;1.20;;;;;;;;;;5038148;28;20386;-68
2021/12/07 12:49:39;;;;;;;9.03;1.40;;;;;;;;;;5035592;28;20779;-69
2021/12/07 12:52:05;;;;;;;1.63;1.10;;;;;;;;;;5036739;28;20428;-68
2021/12/07 12:54:39;;;;;;;4.10;1.30;;;;;;;;;;5050498;28;20440;-68
2021/12/07 12:57:13;;;;;;;7.37;1.77;;;;;;;;;;5056347;28;20477;-68
2021/12/07 12:59:41;;;;;;;1.93;1.20;;;;;;;;;;5056618;28;20426;-68
2021/12/07 13:02:07;;;;;;;3.80;1.90;;;;;;;;;;5052944;28;20418;-68
2021/12/07 13:04:34;;;;;;;4.77;1.30;;;;;;;;;;5035445;28;20909;-67
2021/12/07 13:07:23;;;;;;;1.67;1.20;;;;;;;;;;5036625;28;20413;-68
2021/12/07 13:09:53;;;;;;;6.07;1.53;;;;;;;;;;5036651;28;20402;-68
2021/12/07 13:12:20;;;;;;;3.20;1.20;;;;;;;;;;5036454;28;20473;-68
2021/12/07 13:14:49;;;;;;;5.90;1.20;;;;;;;;;;5036452;28;20490;-68
2021/12/07 13:17:18;;;;;;;3.10;1.20;;;;;;;;;;5035129;28;20469;-68
2021/12/07 13:20:03;;;;;;;5.33;1.63;;;;;;;;;;5036353;28;20428;-68
2021/12/07 13:22:36;;;;;;;3.17;2.03;;;;;;;;;;5034777;28;20534;-69
2021/12/07 13:25:07;;;;;;;2.60;1.20;;;;;;;;;;5036316;28;20426;-68
2021/12/07 13:27:33;;;;;;;2.90;1.57;;;;;;;;;;5036179;28;20418;-68
2021/12/07 13:29:59;;;;;;;2.90;1.30;;;;;;;;;;5036141;28;20836;-69
2021/12/07 13:32:25;;;;;;;5.10;1.60;;;;;;;;;;5050895;28;20924;-70
2021/12/07 13:35:12;;;;;;;4.10;1.57;;;;;;;;;;5056051;28;20416;-68
2021/12/07 13:37:45;;;;;;;3.33;1.37;;;;;;;;;;5054258;28;20468;-68
2021/12/07 13:40:21;;;;;;;9.73;1.47;;;;;;;;;;5055114;28;20457;-68
2021/12/07 13:42:50;;;;;;;3.37;1.37;;;;;;;;;;5055821;28;20956;-68
2021/12/07 13:45:17;;;;;;;6.17;1.30;;;;;;;;;;5055885;28;20402;-69
2021/12/07 13:47:44;;;;;;;2.77;1.10;;;;;;;;;;5054717;28;20437;-68
2021/12/07 13:50:12;;;;;;;4.37;1.47;;;;;;;;;;5035762;28;20406;-68
2021/12/07 13:52:43;;;;;;;1.77;1.23;;;;;;;;;;5034303;28;20446;-68
2021/12/07 13:55:11;;;;;;;2.70;1.43;;;;;;;;;;5035718;28;20411;-67
2021/12/07 13:57:39;;;;;;;7.07;2.00;;;;;;;;;;5046504;28;20588;-68
2021/12/07 14:00:08;;;;;;;3.00;1.30;;;;;;;;;;5054289;28;20928;-70
2021/12/07 14:02:34;;;;;;;6.60;1.60;;;;;;;;;;5055498;28;20455;-70
2021/12/07 14:05:07;;;;;;;3.83;1.73;;;;;;;;;;5055552;28;20399;-70
2021/12/07 14:07:33;;;;;;;3.50;1.93;;;;;;;;;;5053177;28;20935;-69
2021/12/07 14:10:07;;;;;;;2.23;1.50;;;;;;;;;;5053986;28;20769;-69
2021/12/07 14:12:34;;;;;;;3.00;1.50;;;;;;;;;;5055321;28;20415;-68
2021/12/07 14:15:09;;;;;;;2.63;1.43;;;;;;;;;;5055333;28;20900;-69
2021/12/07 14:17:46;;;;;;;4.80;1.80;;;;;;;;;;5054881;28;20557;-70
2021/12/07 14:20:12;;;;;;;6.13;2.00;;;;;;;;;;5054750;28;20500;-70
2021/12/07 14:22:39;;;;;;;4.00;1.80;;;;;;;;;;5054952;28;20479;-69
2021/12/07 14:25:06;;;;;;;5.20;1.90;;;;;;;;;;5046657;28;20561;-69
2021/12/07 14:27:33;;;;;;;3.27;1.67;;;;;;;;;;5035063;28;20506;-71
2021/12/07 14:30:01;;;;;;;4.90;1.53;;;;;;;;;;5035070;28;20491;-70
2021/12/07 14:32:27;;;;;;;6.13;1.87;;;;;;;;;;5038081;28;20425;-70
2021/12/07 14:34:53;;;;;;;2.53;1.50;;;;;;;;;;5054961;28;20433;-69
2021/12/07 14:37:19;;;;;;;4.50;1.80;;;;;;;;;;5054798;28;20603;-69
2021/12/07 14:39:46;;;;;;;4.07;1.50;;;;;;;;;;5054978;28;20446;-69
2021/12/07 14:42:19;;;;;;;4.63;1.70;;;;;;;;;;5052847;28;20459;-70
2021/12/07 14:44:46;;;;;;;3.80;3.33;;;;;;;;;;5052569;28;20434;-70
2021/12/07 14:47:13;;;;;;;5.63;1.00;;;;;;;;;;5053183;28;20848;-67
2021/12/07 14:49:43;;;;;;;2.67;1.50;;;;;;;;;;5045954;28;20436;-69
2021/12/07 14:52:10;;;;;;;4.90;1.43;;;;;;;;;;5034467;28;20525;-68
2021/12/07 14:54:36;;;;;;;2.50;1.40;;;;;;;;;;5033349;28;20410;-69
2021/12/07 14:57:02;;;;;;;2.00;1.10;;;;;;;;;;5039122;28;20484;-68
2021/12/07 14:59:28;;;;;;;5.23;1.63;;;;;;;;;;5054425;28;20413;-68
2021/12/07 15:01:56;;;;;;;3.87;1.33;;;;;;;;;;5054194;28;20418;-69
2021/12/07 15:04:22;;;;;;;5.27;1.37;;;;;;;;;;5053211;28;20427;-69
2021/12/07 15:06:50;;;;;;;4.77;1.33;;;;;;;;;;5053296;28;20430;-68
2021/12/07 15:09:16;;;;;;;2.10;1.30;;;;;;;;;;5053767;28;20417;-68
2021/12/07 15:11:47;;;;;;;3.67;1.50;;;;;;;;;;5054171;28;20402;-68
2021/12/07 15:14:15;;;;;;;3.80;1.73;;;;;;;;;;5052897;28;20488;-67
2021/12/07 15:16:42;;;;;;;2.80;1.40;;;;;;;;;;5053018;28;20552;-69
2021/12/07 15:19:08;;;;;;;3.80;1.57;;;;;;;;;;5054122;28;20414;-68
2021/12/07 15:21:35;;;;;;;4.87;1.60;;;;;;;;;;5053868;28;20443;-68
2021/12/07 15:24:12;;;;;;;3.47;1.80;;;;;;;;;;5046674;28;20522;-70
2021/12/07 15:26:38;;;;;;;5.10;2.10;;;;;;;;;;5032646;28;20760;-70
2021/12/07 15:29:06;;;;;;;4.37;2.00;;;;;;;;;;5033818;28;20414;-69
2021/12/07 15:31:38;;;;;;;7.80;2.23;;;;;;;;;;5033796;28;20916;-67
2021/12/07 15:34:05;;;;;;;5.73;1.87;;;;;;;;;;5033941;28;20413;-69
2021/12/07 15:36:32;;;;;;;4.10;2.37;;;;;;;;;;5032406;28;20846;-68
2021/12/07 15:39:06;;;;;;;2.50;1.67;;;;;;;;;;5033806;28;20837;-69
2021/12/07 15:41:32;;;;;;;7.73;2.40;;;;;;;;;;5033700;28;20465;-68
2021/12/07 15:43:59;;;;;;;9.53;2.57;;;;;;;;;;5032355;28;20913;-67
2021/12/07 15:46:26;;;;;;;3.80;3.03;;;;;;;;;;5033683;28;20418;-69
2021/12/07 15:48:55;;;;;;;8.57;3.23;;;;;;;;;;5033580;28;20427;-69
2021/12/07 15:51:21;;;;;;;4.50;2.53;;;;;;;;;;5052143;28;20508;-69
2021/12/07 15:53:47;;;;;;;6.13;2.87;;;;;;;;;;5053364;28;20516;-67
2021/12/07 15:56:17;;;;;;;9.30;2.70;;;;;;;;;;5053049;28;20466;-67
2021/12/07 15:58:45;;;;;;;6.93;2.83;;;;;;;;;;5052508;28;20528;-70
2021/12/07 16:01:11;;;;;;;6.07;2.47;;;;;;;;;;5053172;28;20951;-67
2021/12/07 16:03:48;;;;;;;5.33;2.50;;;;;;;;;;5053261;28;20763;-70
2021/12/07 16:06:16;;;;;;;7.33;2.30;;;;;;;;;;5052447;28;20414;-67
2021/12/07 16:08:42;;;;;;;6.87;2.93;;;;;;;;;;5053264;28;20456;-71
2021/12/07 16:11:10;;;;;;;4.90;2.70;;;;;;;;;;5053327;28;20399;-69
2021/12/07 16:13:37;;;;;;;5.93;2.53;;;;;;;;;;5053121;28;20427;-67
2021/12/07 16:16:04;;;;;;;6.00;2.50;;;;;;;;;;5040540;28;20437;-68
2021/12/07 16:18:33;;;;;;;4.03;2.47;;;;;;;;;;5051361;28;20571;-68
2021/12/07 16:20:59;;;;;;;6.80;3.43;;;;;;;;;;5052270;28;20438;-68
2021/12/07 16:23:26;;;;;;;5.53;2.47;;;;;;;;;;5052294;28;20932;-69
2021/12/07 16:25:52;;;;;;;11.37;3.17;;;;;;;;;;5052995;28;20465;-70
2021/12/07 16:28:18;;;;;;;4.13;2.83;;;;;;;;;;5052983;28;20445;-69
2021/12/07 16:30:44;;;;;;;12.63;3.80;;;;;;;;;;5053033;28;20432;-70
2021/12/07 16:33:11;;;;;;;4.23;2.80;;;;;;;;;;5052254;28;20475;-69
2021/12/07 16:35:37;;;;;;;7.43;2.40;;;;;;;;;;5053022;28;20439;-69
2021/12/07 16:38:03;;;;;;;5.17;2.93;;;;;;;;;;5051560;28;20478;-69
2021/12/07 16:40:29;;;;;;;6.67;2.40;;;;;;;;;;5052926;28;20426;-69
2021/12/07 16:42:56;;;;;;;4.40;2.67;;;;;;;;;;5039056;28;20524;-69